createdAt,value
2022-10-02T00:00:38.469Z,94.80
2022-10-02T00:03:04.815Z,94.55
2022-10-02T00:05:31.156Z,94.81
2022-10-02T00:07:57.478Z,94.31
2022-10-02T00:10:23.823Z,94.44
2022-10-02T00:12:50.165Z,94.42
2022-10-02T00:15:16.492Z,94.74
2022-10-02T00:17:42.814Z,94.44
2022-10-02T00:20:09.138Z,94.87
2022-10-02T00:22:35.488Z,94.97
2022-10-02T00:25:01.820Z,94.73
2022-10-02T00:27:28.150Z,95.25
2022-10-02T00:29:54.464Z,95.54
2022-10-02T00:32:20.791Z,95.50
2022-10-02T00:34:47.133Z,95.58
2022-10-02T00:37:13.484Z,95.67
2022-10-02T00:39:39.817Z,95.46
2022-10-02T00:42:06.179Z,95.45
2022-10-02T00:44:32.493Z,95.55
2022-10-02T00:46:58.817Z,95.84
2022-10-02T00:49:25.180Z,95.84
2022-10-02T00:51:51.507Z,95.76
2022-10-02T00:54:17.849Z,95.80
2022-10-02T00:56:44.172Z,95.86
2022-10-02T00:59:10.513Z,95.61
2022-10-02T01:01:36.874Z,95.95
2022-10-02T01:04:03.211Z,96.04
2022-10-02T01:06:29.539Z,95.53
2022-10-02T01:08:55.908Z,95.55
2022-10-02T01:11:22.226Z,95.10
2022-10-02T01:13:48.578Z,95.49
2022-10-02T01:16:14.987Z,95.69
2022-10-02T01:18:41.252Z,95.55
2022-10-02T01:21:07.577Z,95.82
2022-10-02T01:23:33.937Z,95.28
2022-10-02T01:26:00.262Z,94.91
2022-10-02T01:28:26.662Z,95.71
2022-10-02T01:30:52.931Z,95.53
2022-10-02T01:33:19.243Z,95.30
2022-10-02T01:35:45.592Z,94.80
2022-10-02T01:38:11.939Z,94.48
2022-10-02T01:40:38.264Z,94.35
2022-10-02T01:43:04.602Z,93.81
2022-10-02T01:45:31.055Z,94.50
2022-10-02T01:47:57.301Z,94.90
2022-10-02T01:50:23.642Z,94.65
2022-10-02T01:52:49.983Z,94.79
2022-10-02T01:55:16.322Z,94.26
2022-10-02T01:57:42.677Z,93.83
2022-10-02T02:00:09.002Z,93.69
2022-10-02T02:02:35.370Z,93.59
2022-10-02T02:05:01.690Z,93.87
2022-10-02T02:07:28.027Z,93.88
2022-10-02T02:09:54.352Z,93.28
2022-10-02T02:12:20.686Z,93.06
2022-10-02T02:14:47.005Z,93.16
2022-10-02T02:17:13.326Z,92.80
2022-10-02T02:19:39.671Z,92.59
2022-10-02T02:22:06.001Z,92.86
2022-10-02T02:24:32.324Z,92.50
2022-10-02T02:26:58.643Z,92.42
2022-10-02T02:29:24.985Z,92.12
2022-10-02T02:31:51.386Z,91.81
2022-10-02T02:34:17.646Z,91.46
2022-10-02T02:36:43.961Z,91.33
2022-10-02T02:39:10.303Z,91.17
2022-10-02T02:41:36.622Z,91.17
2022-10-02T02:44:02.957Z,90.51
2022-10-02T02:46:29.319Z,90.65
2022-10-02T02:48:55.641Z,90.39
2022-10-02T02:51:21.957Z,90.33
2022-10-02T02:53:48.284Z,90.25
2022-10-02T02:56:14.656Z,90.08
2022-10-02T02:58:40.971Z,90.15
2022-10-02T03:01:07.398Z,89.94
2022-10-02T03:03:33.868Z,90.09
2022-10-02T03:06:00.183Z,89.57
2022-10-02T03:08:26.526Z,89.60
2022-10-02T03:10:52.864Z,88.94
2022-10-02T03:13:19.206Z,89.33
2022-10-02T03:15:45.573Z,89.15
2022-10-02T03:18:11.899Z,88.25
2022-10-02T03:20:38.245Z,87.71
2022-10-02T03:23:04.564Z,87.31
2022-10-02T03:25:30.919Z,88.06
2022-10-02T03:27:57.294Z,88.64
2022-10-02T03:30:23.571Z,90.15
2022-10-02T03:32:49.935Z,89.15
2022-10-02T03:35:16.272Z,89.89
2022-10-02T03:37:42.616Z,88.62
2022-10-02T03:40:08.992Z,88.90
2022-10-02T03:42:35.337Z,89.75
2022-10-02T03:45:01.657Z,88.00
2022-10-02T03:47:28.004Z,87.30
2022-10-02T03:49:54.323Z,87.07
2022-10-02T03:52:20.668Z,86.11
2022-10-02T03:54:47.024Z,84.75
2022-10-02T03:57:13.364Z,83.42
2022-10-02T03:59:39.679Z,83.75
2022-10-02T04:02:06.122Z,82.34
2022-10-02T04:04:32.384Z,80.58
2022-10-02T04:06:58.707Z,80.63
2022-10-02T04:09:25.066Z,80.91
2022-10-02T04:11:51.405Z,79.66
2022-10-02T04:14:17.716Z,78.50
2022-10-02T04:16:44.074Z,78.89
2022-10-02T04:19:10.411Z,78.93
2022-10-02T04:21:36.751Z,77.54
2022-10-02T04:24:03.071Z,76.88
2022-10-02T04:26:29.413Z,77.07
2022-10-02T04:28:55.750Z,76.45
2022-10-02T04:31:22.120Z,76.16
2022-10-02T04:33:48.410Z,75.38
2022-10-02T04:36:14.752Z,75.89
2022-10-02T04:38:41.092Z,75.41
2022-10-02T04:41:07.432Z,74.88
2022-10-02T04:43:33.769Z,74.36
2022-10-02T04:46:00.234Z,72.89
2022-10-02T04:48:26.430Z,72.58
2022-10-02T04:50:52.759Z,72.22
2022-10-02T04:53:19.103Z,71.73
2022-10-02T04:55:45.446Z,70.84
2022-10-02T04:58:11.782Z,70.75
2022-10-02T05:00:38.162Z,70.25
2022-10-02T05:03:04.462Z,69.71
2022-10-02T05:05:30.798Z,69.65
2022-10-02T05:07:57.135Z,69.00
2022-10-02T05:10:23.518Z,69.29
2022-10-02T05:12:49.854Z,67.80
2022-10-02T05:15:16.172Z,67.41
2022-10-02T05:17:42.518Z,65.57
2022-10-02T05:20:08.859Z,64.71
2022-10-02T05:22:35.225Z,63.92
2022-10-02T05:25:01.572Z,64.29
2022-10-02T05:27:27.919Z,66.06
2022-10-02T05:29:54.262Z,64.79
2022-10-02T05:32:20.577Z,64.19
2022-10-02T05:34:46.951Z,66.12
2022-10-02T05:37:13.286Z,64.57
2022-10-02T05:39:39.625Z,63.59
2022-10-02T05:42:05.987Z,64.55
2022-10-02T05:44:32.300Z,65.03
2022-10-02T05:46:58.662Z,65.08
2022-10-02T05:49:24.941Z,65.36
2022-10-02T05:51:51.280Z,64.89
2022-10-02T05:54:17.621Z,65.25
2022-10-02T05:56:43.937Z,62.45
2022-10-02T05:59:10.312Z,63.42
2022-10-02T06:01:36.649Z,64.16
2022-10-02T06:04:02.989Z,64.61
2022-10-02T06:06:29.354Z,64.52
2022-10-02T06:08:55.674Z,64.75
2022-10-02T06:11:22.012Z,62.98
2022-10-02T06:13:48.381Z,64.01
2022-10-02T06:16:14.748Z,64.22
2022-10-02T06:18:41.019Z,63.02
2022-10-02T06:21:07.339Z,63.56
2022-10-02T06:23:33.699Z,64.56
2022-10-02T06:26:00.044Z,62.77
2022-10-02T06:28:26.435Z,63.13
2022-10-02T06:30:53.078Z,63.68
2022-10-02T06:33:19.437Z,62.85
2022-10-02T06:35:45.776Z,62.96
2022-10-02T06:38:12.117Z,61.60
2022-10-02T06:40:38.482Z,59.89
2022-10-02T06:43:04.835Z,60.12
2022-10-02T06:45:31.198Z,61.94
2022-10-02T06:47:57.503Z,62.21
2022-10-02T06:50:23.866Z,61.59
2022-10-02T06:52:50.165Z,61.91
2022-10-02T06:55:16.487Z,61.74
2022-10-02T06:57:42.835Z,61.18
2022-10-02T07:00:09.172Z,61.83
2022-10-02T07:02:35.494Z,60.26
2022-10-02T07:05:01.827Z,60.47
2022-10-02T07:07:28.148Z,59.85
2022-10-02T07:09:54.494Z,57.98
2022-10-02T07:12:20.832Z,55.65
2022-10-02T07:14:47.152Z,55.68
2022-10-02T07:17:13.541Z,55.34
2022-10-02T07:19:39.881Z,55.57
2022-10-02T07:22:25.829Z,53.84
2022-10-02T07:24:32.577Z,52.26
2022-10-02T07:26:58.898Z,51.18
2022-10-02T07:29:25.296Z,50.23
2022-10-02T07:31:51.746Z,49.70
2022-10-02T07:34:18.005Z,48.34
2022-10-02T07:36:44.378Z,48.02
2022-10-02T07:39:10.713Z,48.23
2022-10-02T07:41:37.018Z,46.10
2022-10-02T07:44:03.373Z,46.65
2022-10-02T07:46:29.685Z,46.62
2022-10-02T07:48:56.034Z,46.62
2022-10-02T07:51:22.388Z,46.10
2022-10-02T07:53:48.733Z,46.43
2022-10-02T07:56:15.050Z,45.38
2022-10-02T07:58:41.379Z,45.12
2022-10-02T08:01:07.695Z,44.28
2022-10-02T08:03:34.082Z,44.83
2022-10-02T08:06:00.370Z,44.68
2022-10-02T08:08:26.691Z,43.66
2022-10-02T08:10:53.031Z,43.60
2022-10-02T08:13:19.390Z,43.76
2022-10-02T08:15:45.724Z,44.18
2022-10-02T08:18:33.240Z,42.77
2022-10-02T08:20:38.384Z,42.53
2022-10-02T08:23:04.707Z,43.84
2022-10-02T08:25:31.051Z,42.71
2022-10-02T08:27:57.394Z,43.08
2022-10-02T08:30:23.726Z,42.77
2022-10-02T08:32:50.070Z,42.52
2022-10-02T08:35:16.411Z,42.52
2022-10-02T08:37:42.763Z,42.17
2022-10-02T08:40:09.100Z,44.67
2022-10-02T08:42:35.418Z,43.98
2022-10-02T08:45:01.793Z,44.40
2022-10-02T08:47:28.120Z,45.79
2022-10-02T08:49:54.439Z,45.95
2022-10-02T08:52:20.763Z,44.06
2022-10-02T08:54:47.080Z,42.94
2022-10-02T08:57:13.426Z,42.92
2022-10-02T08:59:39.751Z,41.79
2022-10-02T09:02:06.139Z,40.86
2022-10-02T09:04:32.420Z,40.43
2022-10-02T09:06:58.760Z,40.60
2022-10-02T09:09:25.094Z,40.14
2022-10-02T09:11:51.441Z,40.56
2022-10-02T09:14:17.751Z,40.42
2022-10-02T09:16:44.198Z,39.04
2022-10-02T09:19:10.536Z,39.58
2022-10-02T09:21:36.877Z,39.00
2022-10-02T09:24:03.189Z,38.93
2022-10-02T09:26:29.541Z,38.68
2022-10-02T09:28:55.874Z,39.64
2022-10-02T09:31:22.254Z,39.38
2022-10-02T09:33:48.552Z,39.59
2022-10-02T09:36:14.896Z,38.10
2022-10-02T09:38:41.238Z,37.26
2022-10-02T09:41:07.672Z,37.74
2022-10-02T09:43:34.015Z,37.21
2022-10-02T09:46:00.350Z,37.80
2022-10-02T09:48:26.679Z,37.75
2022-10-02T09:50:53.004Z,38.13
2022-10-02T09:53:19.341Z,36.49
2022-10-02T09:55:45.687Z,37.58
2022-10-02T09:58:12.003Z,37.96
2022-10-02T10:00:38.339Z,36.98
2022-10-02T10:03:04.718Z,36.98
2022-10-02T10:05:31.058Z,36.11
2022-10-02T10:07:57.396Z,35.61
2022-10-02T10:10:23.731Z,35.63
2022-10-02T10:12:50.046Z,35.13
2022-10-02T10:15:16.396Z,35.67
2022-10-02T10:17:42.715Z,35.59
2022-10-02T10:20:09.072Z,36.29
2022-10-02T10:22:35.420Z,35.66
2022-10-02T10:25:01.774Z,35.62
2022-10-02T10:27:28.112Z,35.96
2022-10-02T10:29:54.455Z,35.77
2022-10-02T10:32:20.790Z,35.52
2022-10-02T10:34:47.115Z,36.18
2022-10-02T10:37:13.478Z,35.67
2022-10-02T10:39:39.803Z,34.99
2022-10-02T10:42:06.153Z,34.66
2022-10-02T10:44:32.494Z,34.18
2022-10-02T10:46:58.860Z,34.25
2022-10-02T10:49:25.179Z,33.18
2022-10-02T10:51:51.518Z,33.27
2022-10-02T10:54:17.841Z,33.95
2022-10-02T10:56:44.204Z,34.47
2022-10-02T10:59:10.526Z,34.46
2022-10-02T11:01:37.206Z,35.17
2022-10-02T11:04:03.227Z,35.09
2022-10-02T11:06:29.544Z,34.81
2022-10-02T11:08:55.899Z,34.24
2022-10-02T11:11:22.235Z,34.06
2022-10-02T11:13:48.595Z,34.80
2022-10-02T11:16:14.991Z,35.04
2022-10-02T11:18:41.254Z,34.74
2022-10-02T11:21:07.607Z,35.04
2022-10-02T11:23:33.950Z,35.81
2022-10-02T11:26:00.286Z,34.54
2022-10-02T11:28:26.634Z,34.35
2022-10-02T11:30:52.953Z,35.83
2022-10-02T11:33:19.276Z,35.33
2022-10-02T11:35:45.592Z,35.17
2022-10-02T11:38:11.937Z,35.27
2022-10-02T11:40:38.317Z,35.69
2022-10-02T11:43:04.636Z,35.24
2022-10-02T11:45:31.019Z,35.13
2022-10-02T11:47:57.311Z,34.97
2022-10-02T11:50:23.629Z,35.07
2022-10-02T11:52:49.972Z,35.48
2022-10-02T11:55:16.327Z,34.95
2022-10-02T11:57:42.666Z,35.22
2022-10-02T12:00:09.089Z,34.66
2022-10-02T12:02:35.387Z,35.30
2022-10-02T12:05:01.711Z,35.48
2022-10-02T12:07:28.053Z,35.31
2022-10-02T12:09:54.388Z,35.41
2022-10-02T12:12:23.509Z,35.18
2022-10-02T12:14:47.054Z,35.51
2022-10-02T12:17:13.444Z,35.75
2022-10-02T12:19:39.762Z,35.70
2022-10-02T12:22:06.087Z,35.82
2022-10-02T12:24:32.431Z,35.41
2022-10-02T12:26:58.804Z,35.28
2022-10-02T12:29:25.146Z,35.04
2022-10-02T12:31:51.661Z,35.47
2022-10-02T12:34:17.821Z,35.35
2022-10-02T12:36:44.178Z,36.07
2022-10-02T12:39:10.498Z,36.33
2022-10-02T12:41:37.010Z,35.69
2022-10-02T12:44:03.203Z,35.98
2022-10-02T12:46:29.529Z,35.48
2022-10-02T12:48:55.865Z,36.19
2022-10-02T12:51:22.227Z,36.69
2022-10-02T12:53:48.566Z,37.21
2022-10-02T12:56:14.908Z,36.50
2022-10-02T12:58:41.244Z,36.80
2022-10-02T13:01:07.637Z,37.34
2022-10-02T13:03:33.930Z,38.13
2022-10-02T13:06:00.352Z,38.33
2022-10-02T13:08:26.666Z,39.32
2022-10-02T13:10:52.994Z,38.86
2022-10-02T13:13:19.330Z,39.23
2022-10-02T13:15:45.688Z,39.59
2022-10-02T13:18:12.010Z,39.45
2022-10-02T13:20:38.335Z,39.54
2022-10-02T13:23:04.694Z,39.66
2022-10-02T13:25:31.015Z,39.57
2022-10-02T13:27:57.427Z,39.48
2022-10-02T13:30:23.674Z,39.28
2022-10-02T13:32:50.039Z,39.45
2022-10-02T13:35:16.373Z,39.54
2022-10-02T13:37:42.688Z,39.51
2022-10-02T13:40:09.050Z,39.55
2022-10-02T13:42:35.367Z,40.01
2022-10-02T13:45:01.717Z,39.61
2022-10-02T13:47:28.031Z,39.97
2022-10-02T13:49:54.381Z,40.32
2022-10-02T13:52:20.700Z,40.20
2022-10-02T13:54:47.039Z,40.66
2022-10-02T13:57:13.383Z,40.78
2022-10-02T13:59:39.792Z,40.20
2022-10-02T14:02:06.053Z,40.76
2022-10-02T14:04:32.375Z,40.84
2022-10-02T14:06:58.692Z,41.02
2022-10-02T14:09:25.042Z,41.33
2022-10-02T14:11:51.363Z,41.17
2022-10-02T14:14:17.711Z,40.49
2022-10-02T14:16:44.113Z,40.00
2022-10-02T14:19:10.412Z,39.92
2022-10-02T14:21:37.021Z,39.94
2022-10-02T14:24:03.114Z,40.11
2022-10-02T14:26:29.430Z,40.63
2022-10-02T14:28:55.787Z,40.74
2022-10-02T14:31:22.166Z,40.57
2022-10-02T14:33:48.513Z,40.85
2022-10-02T14:36:14.830Z,41.03
2022-10-02T14:38:41.158Z,40.54
2022-10-02T14:41:07.497Z,40.47
2022-10-02T14:43:33.841Z,40.38
2022-10-02T14:46:00.252Z,40.05
2022-10-02T14:48:26.504Z,39.39
2022-10-02T14:50:52.826Z,39.03
2022-10-02T14:53:19.241Z,39.14
2022-10-02T14:55:45.512Z,39.05
2022-10-02T14:58:11.838Z,39.05
2022-10-02T15:00:38.200Z,39.41
2022-10-02T15:03:04.593Z,39.58
2022-10-02T15:05:30.892Z,39.95
2022-10-02T15:07:57.235Z,40.31
2022-10-02T15:10:23.585Z,40.53
2022-10-02T15:12:49.913Z,40.80
2022-10-02T15:15:16.238Z,40.84
2022-10-02T15:17:42.606Z,41.13
2022-10-02T15:20:09.045Z,40.87
2022-10-02T15:22:35.343Z,40.77
2022-10-02T15:25:01.713Z,40.64
2022-10-02T15:27:28.057Z,40.96
2022-10-02T15:29:54.395Z,40.84
2022-10-02T15:32:20.723Z,41.21
2022-10-02T15:34:47.081Z,41.25
2022-10-02T15:37:13.462Z,41.85
2022-10-02T15:39:39.813Z,42.04
2022-10-02T15:42:06.137Z,42.21
2022-10-02T15:44:32.508Z,42.08
2022-10-02T15:46:59.002Z,42.42
2022-10-02T15:49:25.319Z,42.15
2022-10-02T15:51:51.657Z,41.89
2022-10-02T15:54:17.976Z,42.14
2022-10-02T15:56:44.317Z,42.34
2022-10-02T15:59:10.645Z,42.82
2022-10-02T16:01:41.480Z,43.47
2022-10-02T16:04:03.301Z,43.58
2022-10-02T16:06:29.646Z,43.57
2022-10-02T16:08:55.986Z,43.51
2022-10-02T16:11:22.334Z,43.89
2022-10-02T16:13:48.651Z,43.80
2022-10-02T16:16:15.032Z,44.32
2022-10-02T16:18:41.336Z,44.86
2022-10-02T16:21:07.673Z,45.34
2022-10-02T16:23:33.989Z,44.90
2022-10-02T16:26:00.340Z,44.87
2022-10-02T16:28:26.709Z,44.37
2022-10-02T16:30:53.067Z,44.30
2022-10-02T16:33:19.417Z,44.54
2022-10-02T16:35:45.753Z,44.60
2022-10-02T16:38:12.080Z,44.92
2022-10-02T16:40:38.405Z,44.98
2022-10-02T16:43:04.757Z,44.57
2022-10-02T16:45:31.177Z,45.11
2022-10-02T16:47:57.477Z,45.44
2022-10-02T16:50:23.797Z,45.48
2022-10-02T16:52:50.115Z,45.33
2022-10-02T16:55:16.440Z,45.08
2022-10-02T16:57:42.756Z,44.87
2022-10-02T17:00:09.100Z,45.29
2022-10-02T17:02:35.684Z,45.15
2022-10-02T17:05:02.030Z,45.53
2022-10-02T17:07:28.335Z,45.96
2022-10-02T17:09:54.683Z,46.21
2022-10-02T17:12:21.022Z,46.72
2022-10-02T17:14:47.343Z,47.01
2022-10-02T17:17:13.687Z,47.22
2022-10-02T17:19:40.061Z,47.53
2022-10-02T17:22:06.377Z,47.80
2022-10-02T17:24:32.726Z,48.43
2022-10-02T17:27:01.495Z,48.88
2022-10-02T17:29:27.829Z,48.99
2022-10-02T17:31:54.230Z,49.25
2022-10-02T17:34:20.502Z,49.18
2022-10-02T17:36:46.847Z,49.02
2022-10-02T17:39:13.163Z,49.30
2022-10-02T17:41:39.489Z,49.27
2022-10-02T17:44:05.870Z,49.25
2022-10-02T17:46:32.189Z,49.56
2022-10-02T17:48:58.525Z,49.77
2022-10-02T17:51:51.191Z,50.40
2022-10-02T17:53:51.184Z,50.13
2022-10-02T17:56:17.507Z,50.12
2022-10-02T17:58:43.827Z,50.06
2022-10-02T18:01:10.219Z,50.70
2022-10-02T18:03:36.537Z,50.41
2022-10-02T18:06:02.867Z,50.63
2022-10-02T18:08:30.727Z,50.32
2022-10-02T18:10:55.527Z,50.43
2022-10-02T18:13:21.864Z,50.99
2022-10-02T18:15:48.184Z,50.55
2022-10-02T18:18:14.527Z,50.83
2022-10-02T18:20:40.871Z,51.43
2022-10-02T18:23:07.208Z,51.59
2022-10-02T18:25:33.548Z,52.11
2022-10-02T18:27:59.975Z,52.47
2022-10-02T18:30:26.232Z,52.90
2022-10-02T18:32:52.544Z,52.50
2022-10-02T18:35:18.910Z,53.26
2022-10-02T18:37:45.223Z,54.59
2022-10-02T18:40:11.572Z,55.28
2022-10-02T18:42:37.929Z,55.79
2022-10-02T18:45:04.285Z,56.07
2022-10-02T18:47:30.623Z,56.34
2022-10-02T18:49:56.984Z,56.95
2022-10-02T18:52:23.296Z,57.04
2022-10-02T18:54:49.641Z,57.16
2022-10-02T18:57:15.980Z,57.56
2022-10-02T18:59:42.301Z,57.50
2022-10-02T19:02:08.657Z,58.05
2022-10-02T19:04:34.950Z,58.54
2022-10-02T19:07:01.281Z,58.88
2022-10-02T19:09:27.657Z,59.20
2022-10-02T19:11:53.971Z,59.21
2022-10-02T19:14:20.321Z,59.49
2022-10-02T19:16:46.718Z,60.01
2022-10-02T19:19:13.028Z,59.82
2022-10-02T19:21:39.369Z,59.72
2022-10-02T19:24:05.712Z,59.95
2022-10-02T19:26:32.058Z,60.48
2022-10-02T19:28:58.366Z,60.54
2022-10-02T19:31:24.749Z,61.22
2022-10-02T19:33:51.051Z,61.42
2022-10-02T19:36:17.364Z,61.56
2022-10-02T19:38:43.701Z,61.90
2022-10-02T19:41:10.024Z,62.20
2022-10-02T19:43:36.406Z,62.06
2022-10-02T19:46:02.797Z,62.76
2022-10-02T19:48:29.090Z,62.70
2022-10-02T19:50:55.407Z,62.70
2022-10-02T19:53:21.753Z,62.71
2022-10-02T19:55:48.067Z,63.16
2022-10-02T19:58:14.392Z,63.55
2022-10-02T20:00:40.728Z,64.05
2022-10-02T20:03:07.074Z,63.99
2022-10-02T20:05:33.411Z,64.71
2022-10-02T20:08:03.032Z,64.84
2022-10-02T20:10:26.051Z,64.64
2022-10-02T20:12:52.372Z,64.31
2022-10-02T20:15:18.690Z,64.26
2022-10-02T20:17:45.017Z,64.51
2022-10-02T20:20:11.360Z,64.26
2022-10-02T20:22:37.696Z,64.31
2022-10-02T20:25:04.024Z,64.72
2022-10-02T20:27:30.367Z,65.21
2022-10-02T20:29:56.678Z,66.25
2022-10-02T20:32:23.035Z,66.58
2022-10-02T20:34:49.376Z,66.35
2022-10-02T20:37:15.713Z,66.27
2022-10-02T20:39:42.049Z,66.55
2022-10-02T20:42:08.381Z,66.54
2022-10-02T20:44:34.721Z,66.58
2022-10-02T20:47:01.092Z,66.60
2022-10-02T20:49:27.404Z,67.41
2022-10-02T20:51:54.052Z,67.65
2022-10-02T20:54:20.069Z,67.80
2022-10-02T20:56:46.428Z,67.64
2022-10-02T20:59:12.779Z,67.59
2022-10-02T21:01:39.446Z,67.80
2022-10-02T21:04:05.618Z,68.04
2022-10-02T21:06:31.816Z,67.52
2022-10-02T21:08:58.155Z,67.15
2022-10-02T21:11:24.496Z,67.46
2022-10-02T21:13:50.815Z,67.13
2022-10-02T21:16:17.395Z,67.30
2022-10-02T21:18:43.669Z,67.37
2022-10-02T21:21:09.994Z,67.51
2022-10-02T21:23:36.318Z,67.66
2022-10-02T21:26:02.663Z,67.69
2022-10-02T21:28:29.084Z,67.80
2022-10-02T21:30:55.441Z,67.81
2022-10-02T21:33:21.691Z,67.85
2022-10-02T21:35:48.015Z,67.87
2022-10-02T21:38:14.351Z,68.05
2022-10-02T21:40:40.688Z,68.30
2022-10-02T21:43:07.027Z,68.59
2022-10-02T21:45:33.371Z,68.48
2022-10-02T21:47:59.715Z,68.47
2022-10-02T21:50:27.128Z,68.54
2022-10-02T21:52:53.444Z,68.79
2022-10-02T21:55:19.926Z,68.77
2022-10-02T21:57:46.299Z,69.07
2022-10-02T22:00:12.979Z,68.92
2022-10-02T22:02:39.375Z,68.64
2022-10-02T22:05:05.781Z,68.27
2022-10-02T22:07:32.137Z,68.19
2022-10-02T22:09:58.455Z,67.98
2022-10-02T22:12:24.777Z,68.17
2022-10-02T22:14:51.127Z,68.35
2022-10-02T22:17:17.460Z,68.51
2022-10-02T22:19:43.797Z,68.46
2022-10-02T22:22:10.145Z,68.23
2022-10-02T22:24:36.475Z,68.99
2022-10-02T22:27:02.791Z,68.70
2022-10-02T22:29:29.113Z,69.11
2022-10-02T22:31:55.471Z,69.21
2022-10-02T22:34:22.544Z,69.59
2022-10-02T22:36:48.113Z,69.62
2022-10-02T22:39:14.469Z,69.68
2022-10-02T22:41:41.227Z,69.85
2022-10-02T22:44:07.150Z,70.00
2022-10-02T22:46:36.659Z,69.97
2022-10-02T22:48:59.828Z,69.86
2022-10-02T22:51:26.147Z,69.84
2022-10-02T22:53:52.470Z,70.04
2022-10-02T22:56:18.791Z,70.04
2022-10-02T22:58:45.141Z,70.03
2022-10-02T23:01:11.481Z,70.22
2022-10-02T23:03:37.797Z,70.34
2022-10-02T23:06:04.157Z,70.13
2022-10-02T23:08:30.479Z,69.34
2022-10-02T23:10:56.801Z,69.46
2022-10-02T23:13:23.132Z,69.39
2022-10-02T23:15:49.543Z,69.32
2022-10-02T23:18:15.795Z,68.71
2022-10-02T23:20:42.163Z,68.63
2022-10-02T23:23:08.482Z,68.86
2022-10-02T23:25:34.822Z,68.85
2022-10-02T23:28:01.243Z,68.79
2022-10-02T23:30:27.515Z,69.00
2022-10-02T23:32:53.853Z,69.21
2022-10-02T23:35:20.202Z,69.35
2022-10-02T23:37:46.545Z,69.10
2022-10-02T23:40:12.877Z,68.72
2022-10-02T23:42:39.221Z,68.66
2022-10-02T23:45:05.537Z,69.17
2022-10-02T23:47:31.892Z,70.33
2022-10-02T23:49:58.228Z,69.93
2022-10-02T23:52:24.570Z,69.14
2022-10-02T23:54:50.887Z,69.36
2022-10-02T23:57:17.246Z,70.60
2022-10-02T23:59:43.562Z,71.20
